BLACK BUTTE (BLB)

Elevation: 426' · STONY CR basin · Operator: US Army Corps of Engineers

Provisional data, subject to change.
Query executed Wednesday at 11:43:36   clock

Select a sensor type for a plot of data.
Note: Reservoir Flows are daily averages.

Earlier

Date RES ELE    STORAGE    RES CHG    TOC STO    OUTFLOW    INFLOW    PPT INC    TEMP MN    TEMP MX    EVP PAN   
 FEET   AF   AF   AF   CFS   CFS   INCHES   DEG F   DEG F   INCHES  
03/17/2014 443.16 37842 143 75600 5 90 0.00 54 66 0.22
03/18/2014 443.28 38089 247 78000 6 145 0.00 51 71 0.25
03/19/2014 443.37 38274 185 80400 5 110 0.00 48 75 0.20
03/20/2014 443.47 38481 207 82800 6 120 0.00 47 76 0.17
03/21/2014 443.60 38752 271 85100 6 154 0.01 53 77 0.20
03/22/2014 443.89 39360 608 87400 6 325 0.00 51 78 0.21
03/23/2014 444.19 39995 635 89800 6 336 0.00 46 78 0.18
03/24/2014 444.48 40617 622 92100 6 330 0.00 47 78 0.17
03/25/2014 444.79 41289 672 90800 6 347 0.22 47 59 0.05
03/26/2014 445.10 41969 680 92600 6 353 0.02 48 58 0.07
03/27/2014 445.39 42611 642 93900 5 335 0.00 44 61 0.09
03/28/2014 445.70 43305 694 94700 5 360 0.02 50 65 0.08
03/29/2014 446.45 45012 1707 89700 5 869 0.46 47 59 0.05
03/30/2014 447.10 46525 1513 91700 5 774 0.00 40 59 0.10
03/31/2014 447.63 47782 1257 89400 5 641 0.74 39 50 0.02
04/01/2014 448.12 48963 1181 87200 5 603 0.10 43 52 0.03
04/02/2014 448.60 50138 1175 87400 5 608 0.03 38 64 0.15
04/03/2014 449.06 51279 1141 90100 3 586 0.00 46 62 0.10
04/04/2014 449.49 52361 1082 92700 5 554 0.00 47 59 0.10
04/05/2014 449.87 53331 970 94100 6 508 0.02 46 72 0.19
04/06/2014 450.23 54261 930 96200 5 488 0.02 51 79 0.20
04/07/2014 450.59 55201 940 98900 5 496 0.02 55 79 0.23
04/08/2014 450.94 56126 925 102100 5 486 0.01 56 83 0.20
04/09/2014 451.25 56955 829 105200 5 440 0.00 56 82 0.22
04/10/2014 451.57 57819 864 108100 5 457 0.01 57 84 0.22
04/11/2014 451.86 58610 791 111100 5 418 0.00 55 82 0.19
04/12/2014 452.15 59409 799 114000 5 424 0.00 54 77 0.21
04/13/2014 452.40 60104 695 116900 5 373 0.00 51 80 0.23
04/14/2014 452.66 60833 729 119700 5 393 0.00 60 80 0.26
04/15/2014 453.01 61825 992 122500 5 523 0.00 57 82 0.22
04/16/2014 -- -- -- -- -- -- -- -- -- --

Later | Latest

Warning! This data is preliminary and subject to revision.

Download Data Now Download Data Now | Show BLB Map | Plot BLB Data | 1 Month BLB Data | Real-Time BLB Data | BLB Info